createdAt,value
2018-05-09T00:00:59.264Z,157.50
2018-05-09T00:01:59.262Z,112.50
2018-05-09T00:02:59.330Z,67.50
2018-05-09T00:03:59.328Z,45.00
2018-05-09T00:04:59.332Z,45.00
2018-05-09T00:05:59.263Z,45.00
2018-05-09T00:06:59.218Z,45.00
2018-05-09T00:07:59.227Z,67.50
2018-05-09T00:08:59.344Z,45.00
2018-05-09T00:09:59.301Z,67.50
2018-05-09T00:10:59.228Z,67.50
2018-05-09T00:11:59.404Z,45.00
2018-05-09T00:12:59.305Z,45.00
2018-05-09T00:13:59.354Z,45.00
2018-05-09T00:14:59.345Z,45.00
2018-05-09T00:15:59.308Z,67.50
2018-05-09T00:16:59.273Z,157.50
2018-05-09T00:17:59.270Z,67.50
2018-05-09T00:18:59.211Z,202.50
2018-05-09T00:19:59.211Z,270.00
2018-05-09T00:20:59.344Z,112.50
2018-05-09T00:21:59.333Z,90.00
2018-05-09T00:22:59.349Z,270.00
2018-05-09T00:23:59.213Z,180.00
2018-05-09T00:24:59.345Z,202.50
2018-05-09T00:25:59.249Z,180.00
2018-05-09T00:26:59.285Z,157.50
2018-05-09T00:27:59.276Z,67.50
2018-05-09T00:28:59.279Z,67.50
2018-05-09T00:29:59.252Z,67.50
2018-05-09T00:30:59.321Z,67.50
2018-05-09T00:31:59.285Z,67.50
2018-05-09T00:32:59.343Z,45.00
2018-05-09T00:33:59.277Z,135.00
2018-05-09T00:34:59.288Z,180.00
2018-05-09T00:35:59.346Z,90.00
2018-05-09T00:36:59.350Z,135.00
2018-05-09T00:37:59.241Z,112.50
2018-05-09T00:38:59.345Z,112.50
2018-05-09T00:39:59.287Z,112.50
2018-05-09T00:40:59.258Z,135.00
2018-05-09T00:41:59.356Z,135.00
2018-05-09T00:42:59.346Z,112.50
2018-05-09T00:43:59.346Z,135.00
2018-05-09T00:44:59.361Z,157.50
2018-05-09T00:45:59.366Z,180.00
2018-05-09T00:46:59.297Z,157.50
2018-05-09T00:47:59.250Z,112.50
2018-05-09T00:48:59.363Z,67.50
2018-05-09T00:49:59.290Z,90.00
2018-05-09T00:50:59.302Z,292.50
2018-05-09T00:51:59.344Z,45.00
2018-05-09T00:52:59.361Z,67.50
2018-05-09T00:53:59.248Z,45.00
2018-05-09T00:54:59.255Z,45.00
2018-05-09T00:55:59.348Z,45.00
2018-05-09T00:56:59.350Z,45.00
2018-05-09T00:57:59.426Z,45.00
2018-05-09T00:58:59.290Z,112.50
2018-05-09T00:59:59.334Z,67.50
2018-05-09T01:00:59.343Z,67.50
2018-05-09T01:01:59.354Z,135.00
2018-05-09T01:02:59.373Z,90.00
2018-05-09T01:03:59.234Z,67.50
2018-05-09T01:04:59.376Z,22.50
2018-05-09T01:05:59.360Z,45.00
2018-05-09T01:06:59.337Z,45.00
2018-05-09T01:07:59.264Z,67.50
2018-05-09T01:08:59.311Z,67.50
2018-05-09T01:09:59.360Z,112.50
2018-05-09T01:10:59.301Z,112.50
2018-05-09T01:11:59.313Z,67.50
2018-05-09T01:12:59.346Z,90.00
2018-05-09T01:13:59.383Z,112.50
2018-05-09T01:14:59.250Z,67.50
2018-05-09T01:15:59.295Z,67.50
2018-05-09T01:16:59.286Z,67.50
2018-05-09T01:17:59.343Z,67.50
2018-05-09T01:18:59.347Z,67.50
2018-05-09T01:19:59.254Z,22.50
2018-05-09T01:20:59.353Z,67.50
2018-05-09T01:21:59.282Z,22.50
2018-05-09T01:22:59.345Z,45.00
2018-05-09T01:23:59.349Z,67.50
2018-05-09T01:24:59.376Z,67.50
2018-05-09T01:25:59.396Z,90.00
2018-05-09T01:26:59.373Z,90.00
2018-05-09T01:27:59.325Z,90.00
2018-05-09T01:28:59.380Z,45.00
2018-05-09T01:29:59.318Z,45.00
2018-05-09T01:30:59.275Z,45.00
2018-05-09T01:31:59.355Z,45.00
2018-05-09T01:32:59.382Z,22.50
2018-05-09T01:33:59.356Z,90.00
2018-05-09T01:34:59.291Z,157.50
2018-05-09T01:35:59.357Z,112.50
2018-05-09T01:36:59.359Z,90.00
2018-05-09T01:37:59.255Z,135.00
2018-05-09T01:38:59.297Z,112.50
2018-05-09T01:39:59.293Z,90.00
2018-05-09T01:40:59.299Z,45.00
2018-05-09T01:41:59.292Z,90.00
2018-05-09T01:42:59.362Z,247.50
2018-05-09T01:43:59.315Z,202.50
2018-05-09T01:44:59.359Z,90.00
2018-05-09T01:45:59.370Z,112.50
2018-05-09T01:46:59.265Z,135.00
2018-05-09T01:47:59.295Z,112.50
2018-05-09T01:48:59.339Z,45.00
2018-05-09T01:49:59.296Z,67.50
2018-05-09T01:50:59.346Z,90.00
2018-05-09T01:51:59.405Z,45.00
2018-05-09T01:52:59.290Z,67.50
2018-05-09T01:53:59.401Z,135.00
2018-05-09T01:54:59.499Z,67.50
2018-05-09T01:55:59.410Z,157.50
2018-05-09T01:56:59.345Z,45.00
2018-05-09T01:57:59.390Z,67.50
2018-05-09T01:58:59.405Z,90.00
2018-05-09T01:59:59.409Z,22.50
2018-05-09T02:00:59.377Z,22.50
2018-05-09T02:01:59.406Z,67.50
2018-05-09T02:02:59.376Z,67.50
2018-05-09T02:03:59.331Z,67.50
2018-05-09T02:04:59.285Z,45.00
2018-05-09T02:05:59.397Z,22.50
2018-05-09T02:06:59.294Z,67.50
2018-05-09T02:07:59.335Z,112.50
2018-05-09T02:08:59.397Z,45.00
2018-05-09T02:09:59.307Z,22.50
2018-05-09T02:10:59.377Z,45.00
2018-05-09T02:11:59.267Z,157.50
2018-05-09T02:12:59.288Z,157.50
2018-05-09T02:13:59.300Z,112.50
2018-05-09T02:14:59.333Z,22.50
2018-05-09T02:15:59.322Z,22.50
2018-05-09T02:16:59.386Z,22.50
2018-05-09T02:17:59.353Z,45.00
2018-05-09T02:18:59.324Z,22.50
2018-05-09T02:19:59.390Z,45.00
2018-05-09T02:20:59.321Z,45.00
2018-05-09T02:21:59.387Z,135.00
2018-05-09T02:22:59.335Z,45.00
2018-05-09T02:23:59.429Z,225.00
2018-05-09T02:24:59.417Z,22.50
2018-05-09T02:25:59.410Z,45.00
2018-05-09T02:26:59.297Z,22.50
2018-05-09T02:27:59.337Z,22.50
2018-05-09T02:28:59.417Z,22.50
2018-05-09T02:29:59.413Z,22.50
2018-05-09T02:30:59.309Z,22.50
2018-05-09T02:31:59.395Z,45.00
2018-05-09T02:32:59.317Z,67.50
2018-05-09T02:33:59.363Z,67.50
2018-05-09T02:34:59.375Z,45.00
2018-05-09T02:35:59.324Z,45.00
2018-05-09T02:36:59.325Z,45.00
2018-05-09T02:37:59.357Z,45.00
2018-05-09T02:38:59.400Z,45.00
2018-05-09T02:39:59.426Z,67.50
2018-05-09T02:40:59.443Z,67.50
2018-05-09T02:41:59.346Z,90.00
2018-05-09T02:42:59.363Z,112.50
2018-05-09T02:43:59.309Z,112.50
2018-05-09T02:44:59.340Z,112.50
2018-05-09T02:45:59.404Z,90.00
2018-05-09T02:46:59.378Z,67.50
2018-05-09T02:47:59.342Z,90.00
2018-05-09T02:48:59.340Z,90.00
2018-05-09T02:49:59.437Z,67.50
2018-05-09T02:50:59.412Z,90.00
2018-05-09T02:51:59.343Z,90.00
2018-05-09T02:52:59.414Z,45.00
2018-05-09T02:53:59.418Z,112.50
2018-05-09T02:54:59.415Z,157.50
2018-05-09T02:55:59.411Z,112.50
2018-05-09T02:56:59.350Z,90.00
2018-05-09T02:57:59.419Z,90.00
2018-05-09T02:58:59.351Z,157.50
2018-05-09T02:59:59.416Z,112.50
2018-05-09T03:00:59.435Z,90.00
2018-05-09T03:01:59.349Z,112.50
2018-05-09T03:02:59.418Z,135.00
2018-05-09T03:03:59.350Z,135.00
2018-05-09T03:04:59.426Z,180.00
2018-05-09T03:05:59.336Z,157.50
2018-05-09T03:06:59.393Z,180.00
2018-05-09T03:07:59.440Z,157.50
2018-05-09T03:08:59.424Z,225.00
2018-05-09T03:09:59.452Z,180.00
2018-05-09T03:10:59.337Z,225.00
2018-05-09T03:11:59.418Z,247.50
2018-05-09T03:12:59.395Z,225.00
2018-05-09T03:13:59.379Z,292.50
2018-05-09T03:14:59.424Z,337.50
2018-05-09T03:15:59.389Z,337.50
2018-05-09T03:16:59.428Z,337.50
2018-05-09T03:17:59.355Z,67.50
2018-05-09T03:18:59.443Z,112.50
2018-05-09T03:19:59.425Z,67.50
2018-05-09T03:20:59.424Z,247.50
2018-05-09T03:21:59.360Z,67.50
2018-05-09T03:22:59.320Z,45.00
2018-05-09T03:23:59.365Z,67.50
2018-05-09T03:24:59.460Z,22.50
2018-05-09T03:25:59.395Z,45.00
2018-05-09T03:26:59.461Z,22.50
2018-05-09T03:27:59.401Z,22.50
2018-05-09T03:28:59.463Z,22.50
2018-05-09T03:29:59.391Z,202.50
2018-05-09T03:30:59.394Z,157.50
2018-05-09T03:31:59.450Z,112.50
2018-05-09T03:32:59.439Z,270.00
2018-05-09T03:33:59.456Z,157.50
2018-05-09T03:34:59.379Z,157.50
2018-05-09T03:35:59.440Z,315.00
2018-05-09T03:36:59.371Z,157.50
2018-05-09T03:37:59.435Z,157.50
2018-05-09T03:38:59.373Z,337.50
2018-05-09T03:39:59.435Z,180.00
2018-05-09T03:40:59.370Z,337.50
2018-05-09T03:41:59.461Z,337.50
2018-05-09T03:42:59.376Z,0.00
2018-05-09T03:43:59.378Z,135.00
2018-05-09T03:44:59.400Z,22.50
2018-05-09T03:45:59.435Z,45.00
2018-05-09T03:46:59.347Z,67.50
2018-05-09T03:47:59.359Z,67.50
2018-05-09T03:48:59.436Z,67.50
2018-05-09T03:49:59.436Z,45.00
2018-05-09T03:50:59.358Z,45.00
2018-05-09T03:51:59.437Z,45.00
2018-05-09T03:52:59.441Z,22.50
2018-05-09T03:53:59.437Z,292.50
2018-05-09T03:54:59.404Z,135.00
2018-05-09T03:55:59.478Z,22.50
2018-05-09T03:56:59.466Z,22.50
2018-05-09T03:57:59.475Z,45.00
2018-05-09T03:58:59.408Z,45.00
2018-05-09T03:59:59.484Z,45.00
2018-05-09T04:00:59.478Z,45.00
2018-05-09T04:01:59.377Z,67.50
2018-05-09T04:02:59.449Z,45.00
2018-05-09T04:03:59.416Z,90.00
2018-05-09T04:04:59.477Z,202.50
2018-05-09T04:05:59.374Z,157.50
2018-05-09T04:06:59.392Z,247.50
2018-05-09T04:07:59.433Z,45.00
2018-05-09T04:08:59.353Z,22.50
2018-05-09T04:09:59.377Z,45.00
2018-05-09T04:10:59.359Z,45.00
2018-05-09T04:11:59.480Z,22.50
2018-05-09T04:12:59.457Z,22.50
2018-05-09T04:13:59.416Z,22.50
2018-05-09T04:14:59.413Z,112.50
2018-05-09T04:15:59.377Z,22.50
2018-05-09T04:16:59.350Z,157.50
2018-05-09T04:17:59.442Z,112.50
2018-05-09T04:18:59.326Z,22.50
2018-05-09T04:19:59.398Z,45.00
2018-05-09T04:20:59.438Z,157.50
2018-05-09T04:21:59.454Z,135.00
2018-05-09T04:22:59.355Z,22.50
2018-05-09T04:23:59.340Z,22.50
2018-05-09T04:24:59.367Z,22.50
2018-05-09T04:25:59.457Z,22.50
2018-05-09T04:26:59.439Z,0.00
2018-05-09T04:27:59.463Z,45.00
2018-05-09T04:28:59.404Z,22.50
2018-05-09T04:29:59.355Z,67.50
2018-05-09T04:30:59.419Z,67.50
2018-05-09T04:31:59.438Z,45.00
2018-05-09T04:32:59.437Z,67.50
2018-05-09T04:33:59.373Z,90.00
2018-05-09T04:34:59.470Z,90.00
2018-05-09T04:35:59.358Z,22.50
2018-05-09T04:36:59.380Z,22.50
2018-05-09T04:37:59.473Z,45.00
2018-05-09T04:38:59.355Z,45.00
2018-05-09T04:39:59.407Z,22.50
2018-05-09T04:40:59.466Z,45.00
2018-05-09T04:41:59.495Z,22.50
2018-05-09T04:42:59.429Z,22.50
2018-05-09T04:43:59.463Z,22.50
2018-05-09T04:44:59.368Z,22.50
2018-05-09T04:45:59.414Z,22.50
2018-05-09T04:46:59.413Z,22.50
2018-05-09T04:47:59.476Z,22.50
2018-05-09T04:48:59.412Z,22.50
2018-05-09T04:49:59.482Z,22.50
2018-05-09T04:50:59.415Z,45.00
2018-05-09T04:51:59.415Z,45.00
2018-05-09T04:52:59.487Z,45.00
2018-05-09T04:53:59.412Z,45.00
2018-05-09T04:54:59.472Z,45.00
2018-05-09T04:55:59.403Z,45.00
2018-05-09T04:56:59.422Z,22.50
2018-05-09T04:57:59.483Z,247.50
2018-05-09T04:58:59.489Z,337.50
2018-05-09T04:59:59.448Z,22.50
2018-05-09T05:00:59.388Z,22.50
2018-05-09T05:01:59.517Z,0.00
2018-05-09T05:02:59.507Z,67.50
2018-05-09T05:03:59.393Z,180.00
2018-05-09T05:04:59.495Z,90.00
2018-05-09T05:05:59.422Z,112.50
2018-05-09T05:06:59.538Z,22.50
2018-05-09T05:07:59.425Z,0.00
2018-05-09T05:08:59.423Z,0.00
2018-05-09T05:09:59.429Z,90.00
2018-05-09T05:10:59.429Z,22.50
2018-05-09T05:11:59.426Z,247.50
2018-05-09T05:12:59.490Z,270.00
2018-05-09T05:13:59.425Z,67.50
2018-05-09T05:14:59.491Z,180.00
2018-05-09T05:15:59.468Z,45.00
2018-05-09T05:16:59.523Z,22.50
2018-05-09T05:18:59.531Z,45.00
2018-05-09T05:19:59.462Z,22.50
2018-05-09T05:20:59.419Z,67.50
2018-05-09T05:21:59.525Z,45.00
2018-05-09T05:22:59.400Z,135.00
2018-05-09T05:23:59.426Z,67.50
2018-05-09T05:24:59.535Z,67.50
2018-05-09T05:25:59.474Z,180.00
2018-05-09T05:26:59.539Z,202.50
2018-05-09T05:27:59.529Z,202.50
2018-05-09T05:28:59.542Z,157.50
2018-05-09T05:29:59.415Z,67.50
2018-05-09T05:30:59.486Z,67.50
2018-05-09T05:31:59.551Z,67.50
2018-05-09T05:32:59.431Z,22.50
2018-05-09T05:33:59.529Z,180.00
2018-05-09T05:34:59.450Z,157.50
2018-05-09T05:35:59.455Z,67.50
2018-05-09T05:36:59.389Z,157.50
2018-05-09T05:37:59.393Z,45.00
2018-05-09T05:38:59.390Z,67.50
2018-05-09T05:39:59.431Z,45.00
2018-05-09T05:40:59.464Z,45.00
2018-05-09T05:41:59.441Z,67.50
2018-05-09T05:42:59.526Z,67.50
2018-05-09T05:43:59.504Z,90.00
2018-05-09T05:44:59.544Z,90.00
2018-05-09T05:45:59.422Z,90.00
2018-05-09T05:46:59.556Z,112.50
2018-05-09T05:47:59.538Z,67.50
2018-05-09T05:48:59.423Z,67.50
2018-05-09T05:49:59.492Z,45.00
2018-05-09T05:50:59.549Z,45.00
2018-05-09T05:51:59.484Z,135.00
2018-05-09T05:52:59.499Z,135.00
2018-05-09T05:53:59.438Z,135.00
2018-05-09T05:54:59.551Z,135.00
2018-05-09T05:55:59.504Z,157.50
2018-05-09T05:56:59.431Z,157.50
2018-05-09T05:57:59.506Z,90.00
2018-05-09T05:58:59.430Z,225.00
2018-05-09T05:59:59.456Z,225.00
2018-05-09T06:00:59.458Z,270.00
2018-05-09T06:01:59.504Z,202.50
2018-05-09T06:02:59.444Z,180.00
2018-05-09T06:03:59.527Z,135.00
2018-05-09T06:04:59.555Z,225.00
2018-05-09T06:05:59.463Z,112.50
2018-05-09T06:06:59.466Z,90.00
2018-05-09T06:07:59.597Z,67.50
2018-05-09T06:08:59.530Z,112.50
2018-05-09T06:09:59.471Z,112.50
2018-05-09T06:10:59.469Z,90.00
2018-05-09T06:11:59.532Z,157.50
2018-05-09T06:12:59.533Z,135.00
2018-05-09T06:13:59.468Z,157.50
2018-05-09T06:14:59.545Z,135.00
2018-05-09T06:15:59.441Z,67.50
2018-05-09T06:16:59.533Z,90.00
2018-05-09T06:17:59.526Z,67.50
2018-05-09T06:18:59.526Z,90.00
2018-05-09T06:19:59.407Z,112.50
2018-05-09T06:22:59.473Z,90.00
2018-05-09T06:23:59.570Z,67.50
2018-05-09T06:24:59.444Z,90.00
2018-05-09T06:25:59.446Z,112.50
2018-05-09T06:26:59.569Z,112.50
2018-05-09T06:27:59.517Z,90.00
2018-05-09T06:28:59.499Z,112.50
2018-05-09T06:29:59.548Z,90.00
2018-05-09T06:30:59.579Z,157.50
2018-05-09T06:31:59.467Z,112.50
2018-05-09T06:32:59.469Z,90.00
2018-05-09T06:33:59.515Z,67.50
2018-05-09T06:34:59.502Z,67.50
2018-05-09T06:35:59.548Z,135.00
2018-05-09T06:36:59.551Z,135.00
2018-05-09T06:37:59.551Z,112.50
2018-05-09T06:38:59.487Z,112.50
2018-05-09T06:39:59.550Z,90.00
2018-05-09T06:40:59.484Z,157.50
2018-05-09T06:41:59.549Z,135.00
2018-05-09T06:42:59.485Z,112.50
2018-05-09T06:43:59.557Z,157.50
2018-05-09T06:44:59.554Z,112.50
2018-05-09T06:45:59.461Z,135.00
2018-05-09T06:46:59.458Z,90.00
2018-05-09T06:47:59.545Z,67.50
2018-05-09T06:48:59.459Z,67.50
2018-05-09T06:49:59.570Z,90.00
2018-05-09T06:50:59.511Z,157.50
2018-05-09T06:51:59.548Z,135.00
2018-05-09T06:52:59.445Z,112.50
2018-05-09T06:53:59.501Z,135.00
2018-05-09T06:54:59.445Z,90.00
2018-05-09T06:55:59.599Z,90.00
2018-05-09T06:56:59.525Z,225.00
2018-05-09T06:57:59.469Z,157.50
2018-05-09T06:58:59.670Z,135.00
2018-05-09T06:59:59.552Z,180.00
2018-05-09T07:00:59.472Z,180.00
2018-05-09T07:01:59.528Z,135.00
2018-05-09T07:02:59.602Z,180.00
2018-05-09T07:03:59.543Z,180.00
2018-05-09T07:04:59.539Z,157.50
2018-05-09T07:05:59.542Z,112.50
2018-05-09T07:06:59.535Z,157.50
2018-05-09T07:07:59.570Z,180.00
2018-05-09T07:08:59.591Z,225.00
2018-05-09T07:09:59.541Z,225.00
2018-05-09T07:10:59.521Z,157.50
2018-05-09T07:11:59.599Z,112.50
2018-05-09T07:12:59.532Z,135.00
2018-05-09T07:13:59.567Z,135.00
2018-05-09T07:14:59.525Z,157.50
2018-05-09T07:15:59.471Z,157.50
2018-05-09T07:16:59.477Z,135.00
2018-05-09T07:17:59.471Z,67.50
2018-05-09T07:18:59.522Z,247.50
2018-05-09T07:19:59.521Z,135.00
2018-05-09T07:20:59.471Z,202.50
2018-05-09T07:21:59.433Z,225.00
2018-05-09T07:22:59.466Z,90.00
2018-05-09T07:23:59.481Z,157.50
2018-05-09T07:24:59.479Z,135.00
2018-05-09T07:25:59.542Z,247.50
2018-05-09T07:26:59.540Z,225.00
2018-05-09T07:27:59.613Z,270.00
2018-05-09T07:28:59.555Z,292.50
2018-05-09T07:29:59.613Z,270.00
2018-05-09T07:30:59.539Z,225.00
2018-05-09T07:31:59.610Z,247.50
2018-05-09T07:32:59.536Z,292.50
2018-05-09T07:33:59.525Z,270.00
2018-05-09T07:34:59.613Z,270.00
2018-05-09T07:35:59.530Z,292.50
2018-05-09T07:36:59.583Z,292.50
2018-05-09T07:37:59.522Z,315.00
2018-05-09T07:38:59.589Z,292.50
2018-05-09T07:39:59.586Z,225.00
2018-05-09T07:40:59.522Z,225.00
2018-05-09T07:41:59.595Z,202.50
2018-05-09T07:42:59.524Z,135.00
2018-05-09T07:43:59.597Z,180.00
2018-05-09T07:44:59.528Z,225.00
2018-05-09T07:45:59.588Z,135.00
2018-05-09T07:46:59.615Z,292.50
2018-05-09T07:47:59.592Z,157.50
2018-05-09T07:48:59.625Z,225.00
2018-05-09T07:49:59.560Z,157.50
2018-05-09T07:50:59.640Z,225.00
2018-05-09T07:51:59.597Z,157.50
2018-05-09T07:52:59.598Z,157.50
2018-05-09T07:53:59.597Z,157.50
2018-05-09T07:54:59.517Z,90.00
2018-05-09T07:55:59.552Z,90.00
2018-05-09T07:56:59.572Z,67.50
2018-05-09T07:57:59.598Z,157.50
2018-05-09T07:58:59.565Z,180.00
2018-05-09T07:59:59.519Z,202.50
2018-05-09T08:00:59.562Z,135.00
2018-05-09T08:01:59.673Z,135.00
2018-05-09T08:02:59.635Z,225.00
2018-05-09T08:03:59.577Z,270.00
2018-05-09T08:04:59.560Z,157.50
2018-05-09T08:05:59.685Z,202.50
2018-05-09T08:06:59.568Z,247.50
2018-05-09T08:07:59.537Z,157.50
2018-05-09T08:08:59.640Z,157.50
2018-05-09T08:09:59.610Z,180.00
2018-05-09T08:10:59.546Z,67.50
2018-05-09T08:11:59.547Z,270.00
2018-05-09T08:12:59.609Z,247.50
2018-05-09T08:13:59.544Z,292.50
2018-05-09T08:14:59.543Z,202.50
2018-05-09T08:15:59.594Z,292.50
2018-05-09T08:16:59.563Z,157.50
2018-05-09T08:17:59.488Z,202.50
2018-05-09T08:18:59.509Z,225.00
2018-05-09T08:19:59.483Z,292.50
2018-05-09T08:20:59.554Z,135.00
2018-05-09T08:21:59.510Z,135.00
2018-05-09T08:22:59.596Z,135.00
2018-05-09T08:23:59.479Z,90.00
2018-05-09T08:24:59.553Z,67.50
2018-05-09T08:25:59.550Z,90.00
2018-05-09T08:26:59.620Z,180.00
2018-05-09T08:27:59.554Z,270.00
2018-05-09T08:28:59.557Z,135.00
2018-05-09T08:29:59.627Z,67.50
2018-05-09T08:30:59.622Z,112.50
2018-05-09T08:31:59.556Z,180.00
2018-05-09T08:32:59.633Z,225.00
2018-05-09T08:33:59.557Z,90.00
2018-05-09T08:34:59.645Z,67.50
2018-05-09T08:35:59.625Z,90.00
2018-05-09T08:37:59.624Z,157.50
2018-05-09T08:38:59.562Z,112.50
2018-05-09T08:39:59.631Z,90.00
2018-05-09T08:40:59.558Z,157.50
2018-05-09T08:41:59.629Z,180.00
2018-05-09T08:42:59.588Z,225.00
2018-05-09T08:43:59.774Z,157.50
2018-05-09T08:44:59.561Z,225.00
2018-05-09T08:45:59.567Z,225.00
2018-05-09T08:46:59.633Z,112.50
2018-05-09T08:47:59.563Z,247.50
2018-05-09T08:48:59.567Z,202.50
2018-05-09T08:49:59.635Z,180.00
2018-05-09T08:50:59.635Z,180.00
2018-05-09T08:51:59.602Z,112.50
2018-05-09T08:52:59.570Z,135.00
2018-05-09T08:53:59.635Z,135.00
2018-05-09T08:54:59.571Z,135.00
2018-05-09T08:55:59.545Z,157.50
2018-05-09T08:56:59.573Z,157.50
2018-05-09T08:57:59.623Z,157.50
2018-05-09T08:58:59.569Z,157.50
2018-05-09T08:59:59.573Z,180.00
2018-05-09T09:00:59.633Z,202.50
2018-05-09T09:01:59.725Z,180.00
2018-05-09T09:02:59.627Z,157.50
2018-05-09T09:03:59.571Z,202.50
2018-05-09T09:04:59.521Z,202.50
2018-05-09T09:05:59.627Z,157.50
2018-05-09T09:06:59.632Z,202.50
2018-05-09T09:07:59.593Z,157.50
2018-05-09T09:08:59.602Z,90.00
2018-05-09T09:09:59.583Z,67.50
2018-05-09T09:10:59.530Z,90.00
2018-05-09T09:11:59.577Z,90.00
2018-05-09T09:12:59.606Z,135.00
2018-05-09T09:13:59.519Z,67.50
2018-05-09T09:14:59.579Z,135.00
2018-05-09T09:15:59.649Z,180.00
2018-05-09T09:16:59.552Z,157.50
2018-05-09T09:17:59.588Z,157.50
2018-05-09T09:18:59.677Z,157.50
2018-05-09T09:19:59.616Z,135.00
2018-05-09T09:20:59.619Z,157.50
2018-05-09T09:21:59.575Z,135.00
2018-05-09T09:22:59.563Z,112.50
2018-05-09T09:23:59.594Z,90.00
2018-05-09T09:24:59.563Z,90.00
2018-05-09T09:25:59.592Z,157.50
2018-05-09T09:26:59.660Z,112.50
2018-05-09T09:27:59.658Z,112.50
2018-05-09T09:28:59.604Z,112.50
2018-05-09T09:29:59.664Z,90.00
2018-05-09T09:30:59.592Z,270.00
2018-05-09T09:31:59.594Z,292.50
2018-05-09T09:32:59.672Z,157.50
2018-05-09T09:33:59.598Z,225.00
2018-05-09T09:34:59.596Z,135.00
2018-05-09T09:35:59.594Z,157.50
2018-05-09T09:36:59.599Z,157.50
2018-05-09T09:37:59.662Z,225.00
2018-05-09T09:38:59.600Z,270.00
2018-05-09T09:39:59.666Z,270.00
2018-05-09T09:40:59.671Z,292.50
2018-05-09T09:41:59.604Z,292.50
2018-05-09T09:42:59.666Z,270.00
2018-05-09T09:43:59.602Z,225.00
2018-05-09T09:44:59.602Z,225.00
2018-05-09T09:45:59.635Z,157.50
2018-05-09T09:46:59.629Z,202.50
2018-05-09T09:47:59.633Z,202.50
2018-05-09T09:48:59.608Z,157.50
2018-05-09T09:49:59.621Z,157.50
2018-05-09T09:50:59.674Z,157.50
2018-05-09T09:51:59.595Z,180.00
2018-05-09T09:52:59.629Z,180.00
2018-05-09T09:53:59.632Z,180.00
2018-05-09T09:54:59.652Z,112.50
2018-05-09T09:55:59.642Z,225.00
2018-05-09T09:56:59.633Z,180.00
2018-05-09T09:57:59.642Z,247.50
2018-05-09T09:58:59.705Z,247.50
2018-05-09T09:59:59.646Z,180.00
2018-05-09T10:00:59.697Z,135.00
2018-05-09T10:01:59.709Z,202.50
2018-05-09T10:02:59.678Z,135.00
2018-05-09T10:03:59.645Z,225.00
2018-05-09T10:04:59.587Z,225.00
2018-05-09T10:05:59.680Z,157.50
2018-05-09T10:06:59.618Z,180.00
2018-05-09T10:07:59.742Z,157.50
2018-05-09T10:08:59.619Z,180.00
2018-05-09T10:09:59.688Z,202.50
2018-05-09T10:10:59.682Z,180.00
2018-05-09T10:11:59.620Z,157.50
2018-05-09T10:12:59.687Z,247.50
2018-05-09T10:13:59.643Z,202.50
2018-05-09T10:14:59.686Z,202.50
2018-05-09T10:15:59.710Z,157.50
2018-05-09T10:16:59.666Z,157.50
2018-05-09T10:17:59.708Z,180.00
2018-05-09T10:18:59.709Z,270.00
2018-05-09T10:19:59.718Z,157.50
2018-05-09T10:20:59.708Z,180.00
2018-05-09T10:21:59.659Z,225.00
2018-05-09T10:22:59.663Z,180.00
2018-05-09T10:23:59.596Z,157.50
2018-05-09T10:24:59.600Z,90.00
2018-05-09T10:25:59.694Z,180.00
2018-05-09T10:26:59.627Z,135.00
2018-05-09T10:27:59.700Z,112.50
2018-05-09T10:28:59.632Z,112.50
2018-05-09T10:29:59.697Z,135.00
2018-05-09T10:30:59.675Z,157.50
2018-05-09T10:31:59.629Z,157.50
2018-05-09T10:32:59.701Z,180.00
2018-05-09T10:33:59.632Z,157.50
2018-05-09T10:34:59.698Z,112.50
2018-05-09T10:35:59.632Z,112.50
2018-05-09T10:36:59.691Z,112.50
2018-05-09T10:37:59.632Z,135.00
2018-05-09T10:38:59.631Z,112.50
2018-05-09T10:39:59.587Z,90.00
2018-05-09T10:40:59.590Z,90.00
2018-05-09T10:41:59.687Z,90.00
2018-05-09T10:42:59.615Z,90.00
2018-05-09T10:43:59.700Z,135.00
2018-05-09T10:44:59.576Z,157.50
2018-05-09T10:45:59.673Z,135.00
2018-05-09T10:46:59.674Z,135.00
2018-05-09T10:47:59.662Z,112.50
2018-05-09T10:48:59.610Z,112.50
2018-05-09T10:49:59.617Z,112.50
2018-05-09T10:50:59.740Z,112.50
2018-05-09T10:51:59.742Z,90.00
2018-05-09T10:52:59.731Z,112.50
2018-05-09T10:53:59.680Z,90.00
2018-05-09T10:54:59.737Z,90.00
2018-05-09T10:55:59.726Z,90.00
2018-05-09T10:56:59.720Z,135.00
2018-05-09T10:57:59.645Z,90.00
2018-05-09T10:58:59.719Z,112.50
2018-05-09T10:59:59.648Z,90.00
2018-05-09T11:00:59.748Z,90.00
2018-05-09T11:01:59.650Z,90.00
2018-05-09T11:02:59.713Z,90.00
2018-05-09T11:03:59.649Z,157.50
2018-05-09T11:04:59.715Z,112.50
2018-05-09T11:05:59.652Z,112.50
2018-05-09T11:06:59.688Z,135.00
2018-05-09T11:07:59.647Z,90.00
2018-05-09T11:08:59.683Z,112.50
2018-05-09T11:09:59.728Z,90.00
2018-05-09T11:10:59.746Z,90.00
2018-05-09T11:11:59.620Z,90.00
2018-05-09T11:12:59.751Z,112.50
2018-05-09T11:13:59.639Z,90.00
2018-05-09T11:14:59.625Z,112.50
2018-05-09T11:15:59.727Z,112.50
2018-05-09T11:16:59.634Z,90.00
2018-05-09T11:17:59.694Z,90.00
2018-05-09T11:18:59.635Z,112.50
2018-05-09T11:19:59.742Z,157.50
2018-05-09T11:20:59.711Z,157.50
2018-05-09T11:21:59.699Z,135.00
2018-05-09T11:22:59.767Z,112.50
2018-05-09T11:23:59.730Z,112.50
2018-05-09T11:24:59.696Z,112.50
2018-05-09T11:25:59.636Z,90.00
2018-05-09T11:26:59.717Z,90.00
2018-05-09T11:27:59.678Z,112.50
2018-05-09T11:28:59.724Z,135.00
2018-05-09T11:29:59.638Z,135.00
2018-05-09T11:30:59.642Z,112.50
2018-05-09T11:31:59.717Z,112.50
2018-05-09T11:32:59.640Z,135.00
2018-05-09T11:33:59.636Z,112.50
2018-05-09T11:34:59.703Z,112.50
2018-05-09T11:35:59.733Z,157.50
2018-05-09T11:36:59.740Z,90.00
2018-05-09T11:37:59.673Z,112.50
2018-05-09T11:38:59.741Z,157.50
2018-05-09T11:39:59.676Z,157.50
2018-05-09T11:40:59.742Z,135.00
2018-05-09T11:41:59.673Z,112.50
2018-05-09T11:42:59.705Z,112.50
2018-05-09T11:43:59.676Z,135.00
2018-05-09T11:44:59.745Z,90.00
2018-05-09T11:45:59.683Z,90.00
2018-05-09T11:46:59.683Z,90.00
2018-05-09T11:47:59.770Z,90.00
2018-05-09T11:48:59.696Z,112.50
2018-05-09T11:49:59.752Z,90.00
2018-05-09T11:50:59.772Z,112.50
2018-05-09T11:51:59.708Z,157.50
2018-05-09T11:52:59.732Z,135.00
2018-05-09T11:53:59.718Z,112.50
2018-05-09T11:54:59.750Z,112.50
2018-05-09T11:55:59.714Z,112.50
2018-05-09T11:56:59.673Z,90.00
2018-05-09T11:57:59.748Z,180.00
2018-05-09T11:58:59.788Z,157.50
2018-05-09T11:59:59.750Z,135.00
2018-05-09T12:00:59.752Z,90.00
2018-05-09T12:01:59.724Z,112.50
2018-05-09T12:02:59.786Z,112.50
2018-05-09T12:03:59.788Z,112.50
2018-05-09T12:04:59.679Z,90.00
2018-05-09T12:05:59.727Z,90.00
2018-05-09T12:06:59.730Z,135.00
2018-05-09T12:07:59.728Z,157.50
2018-05-09T12:08:59.683Z,135.00
2018-05-09T12:09:59.682Z,112.50
2018-05-09T12:10:59.760Z,157.50
2018-05-09T12:11:59.659Z,112.50
2018-05-09T12:12:59.737Z,112.50
2018-05-09T12:13:59.788Z,112.50
2018-05-09T12:14:59.791Z,112.50
2018-05-09T12:15:59.735Z,180.00
2018-05-09T12:16:59.704Z,157.50
2018-05-09T12:17:59.687Z,157.50
2018-05-09T12:18:59.741Z,112.50
2018-05-09T12:19:59.660Z,157.50
2018-05-09T12:20:59.734Z,90.00
2018-05-09T12:21:59.633Z,90.00
2018-05-09T12:22:59.642Z,90.00
2018-05-09T12:23:59.666Z,135.00
2018-05-09T12:24:59.716Z,112.50
2018-05-09T12:25:59.668Z,90.00
2018-05-09T12:26:59.805Z,112.50
2018-05-09T12:27:59.749Z,90.00
2018-05-09T12:28:59.749Z,112.50
2018-05-09T12:29:59.800Z,112.50
2018-05-09T12:30:59.801Z,112.50
2018-05-09T12:31:59.774Z,135.00
2018-05-09T12:32:59.736Z,90.00
2018-05-09T12:33:59.737Z,112.50
2018-05-09T12:34:59.816Z,112.50
2018-05-09T12:35:59.700Z,112.50
2018-05-09T12:36:59.700Z,112.50
2018-05-09T12:37:59.823Z,112.50
2018-05-09T12:38:59.743Z,157.50
2018-05-09T12:39:59.737Z,90.00
2018-05-09T12:40:59.777Z,112.50
2018-05-09T12:41:59.759Z,112.50
2018-05-09T12:42:59.747Z,112.50